Time;durP1;ratioP1;P1;durP2;ratioP2;P2;SDS_P1;SDS_P2;PMS_P1;PMS_P2;Temp;Humidity;BMP_temperature;BMP_pressure;BME280_temperature;BME280_humidity;BME280_pressure;Samples;Min_cycle;Max_cycle;Signal;HPM_P1;HPM_P2
2022/04/28 00:04:45;;;;;;;;;;;;;;;6.49;49.94238;103073.5;;;;-80
2022/04/28 00:09:44;;;;;;;;;;;;;;;6.42;49.95605;103072.8;;;;-81
2022/04/28 00:14:45;;;;;;;;;;;;;;;6.35;49.94727;103073.4;;;;-81
2022/04/28 00:19:45;;;;;;;;;;;;;;;6.29;50.00781;103072.2;;;;-81
2022/04/28 00:24:46;;;;;;;;;;;;;;;6.22;50.21973;103070.8;;;;-81
2022/04/28 00:27:35;;;;;;;4.3;1.9;;;;;;;;;;;;;-82
2022/04/28 00:29:44;;;;;;;;;;;;;;;6.18;50.03906;103073.4;;;;-81
2022/04/28 00:34:46;;;;;;;;;;;;;;;6.11;50.23047;103076.7;;;;-81
2022/04/28 00:39:47;;;;;;;;;;;;;;;6.09;50.13867;103071.5;;;;-81
2022/04/28 00:44:44;;;;;;;;;;;;;;;6.07;50.03711;103073.1;;;;-82
2022/04/28 00:54:46;;;;;;;;;;;;;;;5.97;50.01465;103076;;;;-81
2022/04/28 00:57:38;;;;;;;4.6;1.7;;;;;;;;;;;;;-82
2022/04/28 00:59:46;;;;;;;;;;;;;;;5.93;50.15332;103076.1;;;;-80
2022/04/28 01:04:46;;;;;;;;;;;;;;;5.88;50.12402;103075.3;;;;-81
2022/04/28 01:09:45;;;;;;;;;;;;;;;5.83;50.15137;103077.3;;;;-79
2022/04/28 01:14:45;;;;;;;;;;;;;;;5.78;50.20215;103075.3;;;;-81
2022/04/28 01:19:44;;;;;;;;;;;;;;;5.71;50.23828;103070.2;;;;-80
2022/04/28 01:27:38;;;;;;;;;;;;;;;5.65;50.29688;103073.7;;;;-80
2022/04/28 01:27:51;;;;;;;5.3;1.9;;;;;;;;;;;;;-80
2022/04/28 01:32:31;;;;;;;;;;;;;;;5.59;50.23633;103066.9;;;;-80
2022/04/28 01:37:31;;;;;;;;;;;;;;;5.55;50.27344;103068.1;;;;-82
2022/04/28 01:42:32;;;;;;;;;;;;;;;5.46;50.3623;103062.7;;;;-81
2022/04/28 01:47:31;;;;;;;;;;;;;;;5.45;50.38379;103066.8;;;;-80
2022/04/28 01:57:31;;;;;;;;;;;;;;;5.34;50.44922;103076.1;;;;-82
2022/04/28 01:57:41;;;;;;;4.3;1.8;;;;;;;;;;;;;-82
2022/04/28 02:02:31;;;;;;;;;;;;;;;5.32;50.62207;103080.6;;;;-82
2022/04/28 02:07:31;;;;;;;;;;;;;;;5.22;50.61133;103080.3;;;;-79
2022/04/28 02:12:31;;;;;;;;;;;;;;;5.2;50.7627;103089.4;;;;-81
2022/04/28 02:17:31;;;;;;;;;;;;;;;5.18;50.79395;103087.6;;;;-81
2022/04/28 02:22:31;;;;;;;;;;;;;;;5.13;50.70996;103087.3;;;;-80
2022/04/28 02:27:31;;;;;;;;;;;;;;;5.11;50.81836;103090.5;;;;-80
2022/04/28 02:27:40;;;;;;;4.9;1.9;;;;;;;;;;;;;-80
2022/04/28 02:33:08;;;;;;;;;;;;;;;5.06;50.75684;103081.4;;;;-79
2022/04/28 02:37:30;;;;;;;;;;;;;;;5.01;50.86133;103079.1;;;;-80
2022/04/28 02:42:31;;;;;;;;;;;;;;;4.98;50.8457;103072.2;;;;-80
2022/04/28 02:47:31;;;;;;;;;;;;;;;4.95;51.04199;103072.8;;;;-80
2022/04/28 02:52:31;;;;;;;;;;;;;;;4.93;50.89551;103080.6;;;;-82
2022/04/28 02:57:31;;;;;;;;;;;;;;;4.9;50.95898;103079.6;;;;-80
2022/04/28 02:57:42;;;;;;;5.5;2.1;;;;;;;;;;;;;-80
2022/04/28 03:02:31;;;;;;;;;;;;;;;4.88;50.87793;103080.1;;;;-83
2022/04/28 03:12:30;;;;;;;;;;;;;;;4.94;50.78711;103078.9;;;;-81
2022/04/28 03:17:33;;;;;;;;;;;;;;;4.97;50.68066;103078.3;;;;-80
2022/04/28 03:22:35;;;;;;;;;;;;;;;5.03;51.05078;103089.6;;;;-80
2022/04/28 03:27:34;;;;;;;;;;;;;;;5.07;50.86914;103089.5;;;;-81
2022/04/28 03:27:45;;;;;;;4.4;1.9;;;;;;;;;;;;;-81
2022/04/28 03:32:37;;;;;;;;;;;;;;;5.13;50.78711;103084.4;;;;-79
2022/04/28 03:37:30;;;;;;;;;;;;;;;5.19;50.58496;103086.9;;;;-81
2022/04/28 03:42:39;;;;;;;;;;;;;;;5.25;50.64648;103090.1;;;;-82
2022/04/28 03:47:35;;;;;;;;;;;;;;;5.29;50.73926;103085.6;;;;-80
2022/04/28 03:52:35;;;;;;;;;;;;;;;5.32;50.63477;103075.8;;;;-80
2022/04/28 03:57:31;;;;;;;;;;;;;;;5.36;50.49512;103077.9;;;;-81
2022/04/28 03:57:40;;;;;;;4.4;1.9;;;;;;;;;;;;;-81
2022/04/28 04:02:33;;;;;;;;;;;;;;;5.38;50.43066;103084.5;;;;-81
2022/04/28 04:07:31;;;;;;;;;;;;;;;5.39;50.40918;103085.2;;;;-80
2022/04/28 04:12:31;;;;;;;;;;;;;;;5.4;50.48828;103078.3;;;;-81
2022/04/28 04:17:31;;;;;;;;;;;;;;;5.41;50.42383;103077.9;;;;-80
2022/04/28 04:22:30;;;;;;;;;;;;;;;5.42;50.43555;103092.2;;;;-80
2022/04/28 04:27:30;;;;;;;;;;;;;;;5.42;50.55762;103092.9;;;;-81
2022/04/28 04:27:40;;;;;;;4.9;2;;;;;;;;;;;;;-81
2022/04/28 04:32:32;;;;;;;;;;;;;;;5.47;50.44043;103092.8;;;;-79
2022/04/28 04:37:33;;;;;;;;;;;;;;;5.52;50.44727;103090.6;;;;-83
2022/04/28 04:42:35;;;;;;;;;;;;;;;5.52;50.51367;103097.8;;;;-80
2022/04/28 04:47:35;;;;;;;;;;;;;;;5.54;50.78125;103105.7;;;;-82
2022/04/28 04:52:31;;;;;;;;;;;;;;;5.6;51.19629;103110.1;;;;-79
2022/04/28 04:57:31;;;;;;;;;;;;;;;5.65;50.81543;103120.2;;;;-81
2022/04/28 04:57:41;;;;;;;4.4;1.8;;;;;;;;;;;;;-81
2022/04/28 05:02:31;;;;;;;;;;;;;;;5.73;51.12305;103127.9;;;;-80
2022/04/28 05:07:32;;;;;;;;;;;;;;;5.86;50.87305;103134.7;;;;-81
2022/04/28 05:12:30;;;;;;;;;;;;;;;5.96;50.66504;103137.3;;;;-82
2022/04/28 05:17:31;;;;;;;;;;;;;;;6.1;50.37207;103144.8;;;;-81
2022/04/28 05:22:30;;;;;;;;;;;;;;;6.2;50.38281;103145.5;;;;-81
2022/04/28 05:27:31;;;;;;;;;;;;;;;6.32;51.12695;103149.8;;;;-82
2022/04/28 05:27:40;;;;;;;4.6;2.4;;;;;;;;;;;;;-82
2022/04/28 05:32:30;;;;;;;;;;;;;;;6.46;50.58984;103163.1;;;;-79
2022/04/28 05:37:31;;;;;;;;;;;;;;;6.6;50.90625;103162.3;;;;-78
2022/04/28 05:47:30;;;;;;;;;;;;;;;6.86;50.60449;103179.9;;;;-79
2022/04/28 05:52:32;;;;;;;;;;;;;;;7;50.44238;103179;;;;-81
2022/04/28 05:57:30;;;;;;;;;;;;;;;7.12;51.34375;103183.6;;;;-83
2022/04/28 05:57:40;;;;;;;4.6;2.1;;;;;;;;;;;;;-83
2022/04/28 06:02:30;;;;;;;;;;;;;;;7.24;50.85938;103190.4;;;;-81
2022/04/28 06:07:33;;;;;;;;;;;;;;;7.35;50.69531;103196.9;;;;-79
2022/04/28 06:12:31;;;;;;;;;;;;;;;7.45;50.25195;103202.8;;;;-82
2022/04/28 06:17:31;;;;;;;;;;;;;;;7.55;50.68652;103205;;;;-80
2022/04/28 06:22:31;;;;;;;;;;;;;;;7.66;50.97656;103214.4;;;;-80
2022/04/28 06:27:31;;;;;;;;;;;;;;;7.76;50.37793;103220.9;;;;-80
2022/04/28 06:27:40;;;;;;;4.3;2.1;;;;;;;;;;;;;-80
2022/04/28 06:32:30;;;;;;;;;;;;;;;7.87;50.06738;103225.4;;;;-80
2022/04/28 06:37:30;;;;;;;;;;;;;;;7.99;49.81543;103230.2;;;;-82
2022/04/28 06:42:31;;;;;;;;;;;;;;;8.11;51.36133;103240;;;;-81
2022/04/28 06:47:30;;;;;;;;;;;;;;;8.25;49.99023;103241.3;;;;-81
2022/04/28 06:52:31;;;;;;;;;;;;;;;8.4;50.17285;103243.2;;;;-82
2022/04/28 06:57:30;;;;;;;;;;;;;;;8.52;50.20996;103243.5;;;;-74
2022/04/28 06:57:40;;;;;;;5.5;2.2;;;;;;;;;;;;;-74
2022/04/28 07:02:31;;;;;;;;;;;;;;;8.65;50.15918;103251.3;;;;-75
2022/04/28 07:07:30;;;;;;;;;;;;;;;8.8;50.05371;103249.7;;;;-77
2022/04/28 07:12:30;;;;;;;;;;;;;;;8.96;49.92676;103250.5;;;;-74
2022/04/28 07:17:31;;;;;;;;;;;;;;;9.15;49.75977;103259.8;;;;-75
2022/04/28 07:22:32;;;;;;;;;;;;;;;9.35;49.38086;103265.9;;;;-74
2022/04/28 07:27:30;;;;;;;;;;;;;;;9.53;48.98926;103270.1;;;;-75
2022/04/28 07:27:41;;;;;;;5.9;2;;;;;;;;;;;;;-75
2022/04/28 07:32:30;;;;;;;;;;;;;;;9.73;48.73438;103276.1;;;;-74
2022/04/28 07:37:31;;;;;;;;;;;;;;;9.97;48.49316;103281.4;;;;-75
2022/04/28 07:42:30;;;;;;;;;;;;;;;10.21;48.10645;103285;;;;-74
2022/04/28 07:47:30;;;;;;;;;;;;;;;10.48;47.94727;103292.7;;;;-75
2022/04/28 07:52:31;;;;;;;;;;;;;;;10.73;47.7627;103304.7;;;;-75
2022/04/28 07:57:31;;;;;;;;;;;;;;;10.95;47.36133;103308.6;;;;-77
2022/04/28 07:57:41;;;;;;;5.9;2.1;;;;;;;;;;;;;-77
2022/04/28 08:02:32;;;;;;;;;;;;;;;11.15;47.1377;103305.2;;;;-78
2022/04/28 08:07:30;;;;;;;;;;;;;;;11.38;46.80371;103307.5;;;;-75
2022/04/28 08:12:31;;;;;;;;;;;;;;;11.58;46.47754;103304.9;;;;-77
2022/04/28 08:17:30;;;;;;;;;;;;;;;11.79;46.43164;103307.2;;;;-76
2022/04/28 08:22:31;;;;;;;;;;;;;;;11.99;45.65918;103306.5;;;;-76
2022/04/28 08:27:30;;;;;;;;;;;;;;;12.19;45.5332;103308.6;;;;-78
2022/04/28 08:27:40;;;;;;;5.1;2.1;;;;;;;;;;;;;-78
2022/04/28 08:32:31;;;;;;;;;;;;;;;12.38;45.56348;103307.7;;;;-76
2022/04/28 08:37:30;;;;;;;;;;;;;;;12.53;44.99512;103313.6;;;;-75
2022/04/28 08:42:30;;;;;;;;;;;;;;;12.67;44.78516;103308.1;;;;-76
2022/04/28 08:47:31;;;;;;;;;;;;;;;12.79;45.00098;103311;;;;-74
2022/04/28 08:52:31;;;;;;;;;;;;;;;12.91;44.84277;103315.6;;;;-76
2022/04/28 08:57:33;;;;;;;;;;;;;;;13.05;44.80176;103319;;;;-76
2022/04/28 08:57:42;;;;;;;5.5;2.1;;;;;;;;;;;;;-76
2022/04/28 09:02:33;;;;;;;;;;;;;;;13.23;44.21289;103310.3;;;;-77
2022/04/28 09:07:38;;;;;;;;;;;;;;;13.39;44.06055;103306.3;;;;-76
2022/04/28 09:12:30;;;;;;;;;;;;;;;13.6;43.99023;103308.7;;;;-76
2022/04/28 09:17:40;;;;;;;;;;;;;;;13.88;43.87305;103301.8;;;;-75
2022/04/28 09:22:34;;;;;;;;;;;;;;;14.34;43.71582;103302.4;;;;-76
2022/04/28 09:27:30;;;;;;;;;;;;;;;14.93;42.99512;103296.2;;;;-75
2022/04/28 09:27:40;;;;;;;4.8;2.2;;;;;;;;;;;;;-75
2022/04/28 09:32:31;;;;;;;;;;;;;;;15.4;42.125;103294.5;;;;-75
2022/04/28 09:37:32;;;;;;;;;;;;;;;15.75;41.47852;103294.4;;;;-74
2022/04/28 09:42:39;;;;;;;;;;;;;;;16.02;41.15137;103296.8;;;;-77
2022/04/28 09:47:32;;;;;;;;;;;;;;;16.22;40.85352;103293.8;;;;-75
2022/04/28 09:52:37;;;;;;;;;;;;;;;16.43;40.77051;103281.9;;;;-76
2022/04/28 09:57:31;;;;;;;;;;;;;;;16.61;40.50391;103276;;;;-76
2022/04/28 09:57:41;;;;;;;5.2;2.2;;;;;;;;;;;;;-76
2022/04/28 10:02:32;;;;;;;;;;;;;;;16.87;40.28906;103278.7;;;;-77
2022/04/28 10:07:31;;;;;;;;;;;;;;;17.12;40.02832;103280.9;;;;-76
2022/04/28 10:12:31;;;;;;;;;;;;;;;17.32;39.66992;103277.8;;;;-75
2022/04/28 10:17:33;;;;;;;;;;;;;;;17.52;40.04102;103278;;;;-78
2022/04/28 10:22:35;;;;;;;;;;;;;;;17.61;39.82129;103276.8;;;;-79
2022/04/28 10:32:42;;;;;;;;;;;;;;;17.93;39.75977;103283.5;;;;-76
2022/04/28 10:37:33;;;;;;;;;;;;;;;18.16;39.55176;103280.1;;;;-76
2022/04/28 10:42:42;;;;;;;;;;;;;;;18.61;39.50098;103278.6;;;;-77
2022/04/28 10:47:37;;;;;;;;;;;;;;;19.03;39.41309;103278.9;;;;-77
2022/04/28 10:52:31;;;;;;;;;;;;;;;19.18;38.77539;103278.7;;;;-78
2022/04/28 10:57:40;;;;;;;;;;;;;;;19.24;39.15723;103282.4;;;;-76
2022/04/28 10:57:49;;;;;;;6.4;2.5;;;;;;;;;;;;;-76
2022/04/28 11:02:55;;;;;;;;;;;;;;;19.26;38.42773;103281.8;;;;-78
2022/04/28 11:07:34;;;;;;;;;;;;;;;19.28;38.83984;103279;;;;-77
2022/04/28 11:12:37;;;;;;;;;;;;;;;19.32;38.99316;103279.8;;;;-79
2022/04/28 11:17:31;;;;;;;;;;;;;;;19.37;38.4375;103275.8;;;;-83
2022/04/28 11:22:32;;;;;;;;;;;;;;;19.34;38.61816;103279.8;;;;-82
2022/04/28 11:27:34;;;;;;;;;;;;;;;19.29;38.59082;103282.7;;;;-81
2022/04/28 11:27:44;;;;;;;6.5;2.5;;;;;;;;;;;;;-81
2022/04/28 11:32:33;;;;;;;;;;;;;;;19.19;38.08008;103289.5;;;;-80
2022/04/28 11:37:42;;;;;;;;;;;;;;;19.17;38.37402;103281.4;;;;-82
2022/04/28 11:42:33;;;;;;;;;;;;;;;19.28;38.54297;103278.4;;;;-80
2022/04/28 11:47:31;;;;;;;;;;;;;;;19.41;38.50977;103275.6;;;;-80
2022/04/28 11:52:32;;;;;;;;;;;;;;;19.53;38.43945;103272.6;;;;-81
2022/04/28 11:57:32;;;;;;;;;;;;;;;19.73;38.42285;103262.5;;;;-81
2022/04/28 11:57:46;;;;;;;6.4;2.4;;;;;;;;;;;;;-80
2022/04/28 12:02:32;;;;;;;;;;;;;;;20.16;38.82715;103270.5;;;;-80
2022/04/28 12:07:36;;;;;;;;;;;;;;;20.5;38.34082;103270.1;;;;-81
2022/04/28 12:22:41;;;;;;;;;;;;;;;20.65;37.19531;103278.9;;;;-81
2022/04/28 12:27:48;;;;;;;;;;;;;;;20.53;37.41406;103272.9;;;;-80
2022/04/28 12:27:59;;;;;;;6.8;2.3;;;;;;;;;;;;;-80
2022/04/28 12:32:31;;;;;;;;;;;;;;;20.53;37.86133;103276.8;;;;-80
2022/04/28 12:37:33;;;;;;;;;;;;;;;20.62;37.23828;103269.4;;;;-81
2022/04/28 12:42:43;;;;;;;;;;;;;;;20.7;37.81836;103265.2;;;;-80
2022/04/28 12:47:42;;;;;;;;;;;;;;;20.96;38.04688;103274.2;;;;-79
2022/04/28 12:52:34;;;;;;;;;;;;;;;21.18;37.70996;103267;;;;-80
2022/04/28 12:57:32;;;;;;;;;;;;;;;21.36;37.73633;103264;;;;-82
2022/04/28 12:57:52;;;;;;;6.7;2.2;;;;;;;;;;;;;-80
2022/04/28 13:02:37;;;;;;;;;;;;;;;21.6;37.46973;103252.1;;;;-82
2022/04/28 13:07:30;;;;;;;;;;;;;;;21.78;37.31348;103251.2;;;;-81
2022/04/28 13:12:31;;;;;;;;;;;;;;;21.91;37.47363;103245.4;;;;-82
2022/04/28 13:17:31;;;;;;;;;;;;;;;22;36.76758;103237.9;;;;-83
2022/04/28 13:22:30;;;;;;;;;;;;;;;22.19;36.02344;103231.3;;;;-81
2022/04/28 13:27:30;;;;;;;;;;;;;;;22.38;35.83203;103229.5;;;;-80
2022/04/28 13:27:54;;;;;;;5.7;2.1;;;;;;;;;;;;;-82
2022/04/28 13:32:30;;;;;;;;;;;;;;;22.5;36.29102;103233.7;;;;-81
2022/04/28 13:37:30;;;;;;;;;;;;;;;22.78;35.75977;103231;;;;-80
2022/04/28 13:42:30;;;;;;;;;;;;;;;23.08;35.65625;103229.3;;;;-80
2022/04/28 13:47:30;;;;;;;;;;;;;;;23.22;35.80664;103229.6;;;;-80
2022/04/28 13:52:32;;;;;;;;;;;;;;;23.28;35.97363;103216.3;;;;-81
2022/04/28 13:57:30;;;;;;;;;;;;;;;23.44;34.94629;103217.7;;;;-81
2022/04/28 13:57:57;;;;;;;5.1;2;;;;;;;;;;;;;-81
2022/04/28 14:02:30;;;;;;;;;;;;;;;23.59;35.63965;103213.5;;;;-81
2022/04/28 14:07:36;;;;;;;;;;;;;;;23.73;35.23535;103201.1;;;;-81
2022/04/28 14:12:30;;;;;;;;;;;;;;;23.76;35.01758;103200.7;;;;-80
2022/04/28 14:17:32;;;;;;;;;;;;;;;23.66;34.81348;103198.6;;;;-82
2022/04/28 14:22:30;;;;;;;;;;;;;;;23.62;35.13379;103184.8;;;;-81
2022/04/28 14:27:30;;;;;;;;;;;;;;;23.76;35.11035;103185.7;;;;-81
2022/04/28 14:28:02;;;;;;;5.1;1.6;;;;;;;;;;;;;-80
2022/04/28 14:32:30;;;;;;;;;;;;;;;23.87;34.64453;103186.3;;;;-79
2022/04/28 14:37:37;;;;;;;;;;;;;;;23.76;34.93652;103177;;;;-81
2022/04/28 14:42:31;;;;;;;;;;;;;;;23.76;34.92578;103171.5;;;;-79
2022/04/28 14:47:30;;;;;;;;;;;;;;;23.8;34.92871;103168.3;;;;-81
2022/04/28 14:52:33;;;;;;;;;;;;;;;23.88;35.02734;103177.7;;;;-79
2022/04/28 14:57:31;;;;;;;;;;;;;;;23.76;34.79785;103161.6;;;;-82
2022/04/28 14:58:06;;;;;;;5.5;1.9;;;;;;;;;;;;;-81
2022/04/28 15:02:31;;;;;;;;;;;;;;;23.64;34.48828;103153.2;;;;-80
2022/04/28 15:07:31;;;;;;;;;;;;;;;23.4;35.02441;103156.8;;;;-81
2022/04/28 15:12:32;;;;;;;;;;;;;;;23.08;35.4834;103164.2;;;;-83
2022/04/28 15:17:31;;;;;;;;;;;;;;;22.66;35.40527;103171.3;;;;-80
2022/04/28 15:22:30;;;;;;;;;;;;;;;22.33;35.98828;103182.2;;;;-83
2022/04/28 15:27:30;;;;;;;;;;;;;;;22.09;36.07324;103179.9;;;;-81
2022/04/28 15:28:05;;;;;;;4.4;1.8;;;;;;;;;;;;;-83
2022/04/28 15:32:33;;;;;;;;;;;;;;;21.92;35.9668;103179.5;;;;-82
2022/04/28 15:37:34;;;;;;;;;;;;;;;21.8;36.03809;103172.2;;;;-82
2022/04/28 15:42:30;;;;;;;;;;;;;;;21.79;35.95703;103173.6;;;;-83
2022/04/28 15:47:33;;;;;;;;;;;;;;;21.79;35.8418;103173.6;;;;-81
2022/04/28 15:52:30;;;;;;;;;;;;;;;21.71;35.93848;103168.4;;;;-82
2022/04/28 15:57:33;;;;;;;;;;;;;;;21.57;35.98438;103168.1;;;;-81
2022/04/28 15:58:09;;;;;;;6.2;2;;;;;;;;;;;;;-81
2022/04/28 16:02:31;;;;;;;;;;;;;;;21.4;36.32715;103172.4;;;;-80
2022/04/28 16:07:30;;;;;;;;;;;;;;;21.24;36.41797;103174.1;;;;-79
2022/04/28 16:12:31;;;;;;;;;;;;;;;21;36.69629;103175.3;;;;-78
2022/04/28 16:17:33;;;;;;;;;;;;;;;20.8;36.71387;103177.5;;;;-79
2022/04/28 16:22:30;;;;;;;;;;;;;;;20.57;36.89063;103179.8;;;;-80
2022/04/28 16:27:33;;;;;;;;;;;;;;;20.38;36.9209;103179.3;;;;-79
2022/04/28 16:28:15;;;;;;;7.1;2.2;;;;;;;;;;;;;-80
2022/04/28 16:32:34;;;;;;;;;;;;;;;20.17;37.26953;103179.1;;;;-80
2022/04/28 16:37:32;;;;;;;;;;;;;;;19.97;37.34473;103178.4;;;;-80
2022/04/28 16:47:01;;;;;;;;;;;;;;;19.36;37.87695;103166.6;;;;-80
2022/04/28 16:52:01;;;;;;;;;;;;;;;19.05;38.18164;103162.3;;;;-80
2022/04/28 16:57:02;;;;;;;;;;;;;;;18.69;38.53906;103171.6;;;;-82
2022/04/28 16:58:14;;;;;;;6;2;;;;;;;;;;;;;-83
2022/04/28 17:02:01;;;;;;;;;;;;;;;18.35;38.87305;103153;;;;-80
2022/04/28 17:07:01;;;;;;;;;;;;;;;18.05;39.10938;103156.3;;;;-81
2022/04/28 17:12:04;;;;;;;;;;;;;;;17.82;39.38574;103160.6;;;;-81
2022/04/28 17:17:01;;;;;;;;;;;;;;;17.6;39.46777;103165.3;;;;-82
2022/04/28 17:22:02;;;;;;;;;;;;;;;17.31;39.56641;103178.4;;;;-81
2022/04/28 17:27:01;;;;;;;;;;;;;;;17.01;39.90332;103183.7;;;;-79
2022/04/28 17:28:16;;;;;;;5.5;2.1;;;;;;;;;;;;;-81
2022/04/28 17:32:03;;;;;;;;;;;;;;;16.74;40.13965;103191.1;;;;-82
2022/04/28 17:37:02;;;;;;;;;;;;;;;16.47;40.36621;103179.5;;;;-81
2022/04/28 17:42:01;;;;;;;;;;;;;;;16.2;40.54492;103186.1;;;;-81
2022/04/28 17:47:01;;;;;;;;;;;;;;;15.95;40.81836;103189.4;;;;-80
2022/04/28 17:52:01;;;;;;;;;;;;;;;15.68;41.21094;103194.9;;;;-80
2022/04/28 18:02:01;;;;;;;;;;;;;;;15.15;41.81641;103192.7;;;;-84
2022/04/28 18:07:01;;;;;;;;;;;;;;;14.92;42.05469;103192.6;;;;-81
2022/04/28 18:12:09;;;;;;;;;;;;;;;14.7;42.36133;103193.8;;;;-81
2022/04/28 18:17:01;;;;;;;;;;;;;;;14.46;42.67871;103192.2;;;;-81
2022/04/28 18:22:01;;;;;;;;;;;;;;;14.23;42.89355;103198.9;;;;-81
2022/04/28 18:27:01;;;;;;;;;;;;;;;13.95;43.49609;103194.8;;;;-82
2022/04/28 18:28:21;;;;;;;6.4;2.2;;;;;;;;;;;;;-82
2022/04/28 18:32:01;;;;;;;;;;;;;;;13.73;43.85742;103190.4;;;;-81
2022/04/28 18:47:04;;;;;;;;;;;;;;;13.1;44.76172;103205;;;;-81
2022/04/28 18:52:03;;;;;;;;;;;;;;;12.89;45.20117;103206.9;;;;-81
2022/04/28 18:57:05;;;;;;;;;;;;;;;12.7;45.39551;103211.4;;;;-81
2022/04/28 19:02:01;;;;;;;;;;;;;;;12.52;45.63574;103218.2;;;;-80
2022/04/28 19:07:01;;;;;;;;;;;;;;;12.31;46.03906;103222.3;;;;-81
2022/04/28 19:12:02;;;;;;;;;;;;;;;12.12;46.48047;103223.4;;;;-81
2022/04/28 19:17:01;;;;;;;;;;;;;;;11.94;46.81934;103226.1;;;;-79
2022/04/28 19:22:02;;;;;;;;;;;;;;;11.75;47.35938;103235.5;;;;-80
2022/04/28 19:27:01;;;;;;;;;;;;;;;11.6;47.79004;103234.4;;;;-82
2022/04/28 19:28:24;;;;;;;5.9;2.1;;;;;;;;;;;;;-83
2022/04/28 19:32:01;;;;;;;;;;;;;;;11.44;48.27637;103246.1;;;;-81
2022/04/28 19:37:02;;;;;;;;;;;;;;;11.28;48.67285;103244.4;;;;-84
2022/04/28 19:42:03;;;;;;;;;;;;;;;11.17;49.1084;103244.3;;;;-82
2022/04/28 19:47:02;;;;;;;;;;;;;;;11.04;49.3291;103250.9;;;;-81
2022/04/28 19:52:13;;;;;;;;;;;;;;;10.95;49.4082;103247.7;;;;-81
2022/04/28 19:57:02;;;;;;;;;;;;;;;10.82;49.58203;103243.2;;;;-82
2022/04/28 19:58:33;;;;;;;6.7;2.4;;;;;;;;;;;;;-81
2022/04/28 20:02:02;;;;;;;;;;;;;;;10.69;50.02539;103237.9;;;;-80
2022/04/28 20:07:16;;;;;;;;;;;;;;;10.6;50.2959;103245.2;;;;-80
2022/04/28 20:12:03;;;;;;;;;;;;;;;10.46;50.6582;103240.2;;;;-81
2022/04/28 20:17:02;;;;;;;;;;;;;;;10.38;50.74902;103234.7;;;;-80
2022/04/28 20:22:04;;;;;;;;;;;;;;;10.28;51.00488;103222.2;;;;-79
2022/04/28 20:27:03;;;;;;;;;;;;;;;10.18;51.30566;103234;;;;-80
2022/04/28 20:28:24;;;;;;;5.2;2;;;;;;;;;;;;;-81
2022/04/28 20:32:01;;;;;;;;;;;;;;;10.1;51.75293;103240.6;;;;-81
2022/04/28 20:37:04;;;;;;;;;;;;;;;10.01;51.87598;103249.3;;;;-81
2022/04/28 20:42:01;;;;;;;;;;;;;;;9.95;51.83691;103255.6;;;;-82
2022/04/28 20:47:01;;;;;;;;;;;;;;;9.9;51.85156;103257.7;;;;-81
2022/04/28 20:52:01;;;;;;;;;;;;;;;9.81;52.31934;103258.7;;;;-81
2022/04/28 20:57:03;;;;;;;;;;;;;;;9.72;52.2207;103249.3;;;;-82
2022/04/28 20:58:24;;;;;;;4.5;2;;;;;;;;;;;;;-80
2022/04/28 21:02:01;;;;;;;;;;;;;;;9.64;52.44434;103249.2;;;;-81
2022/04/28 21:07:04;;;;;;;;;;;;;;;9.54;53.14453;103249.1;;;;-82
2022/04/28 21:12:01;;;;;;;;;;;;;;;9.48;53.09277;103254.5;;;;-82
2022/04/28 21:17:04;;;;;;;;;;;;;;;9.43;53.41016;103253.4;;;;-78
2022/04/28 21:22:01;;;;;;;;;;;;;;;9.36;53.5791;103250.1;;;;-79
2022/04/28 21:27:04;;;;;;;;;;;;;;;9.32;53.38379;103251.8;;;;-80
2022/04/28 21:28:24;;;;;;;5.3;2;;;;;;;;;;;;;-82
2022/04/28 21:32:01;;;;;;;;;;;;;;;9.27;53.31152;103251.4;;;;-79
2022/04/28 21:37:01;;;;;;;;;;;;;;;9.23;53.38477;103257.4;;;;-80
2022/04/28 21:42:01;;;;;;;;;;;;;;;9.15;53.51953;103258.8;;;;-80
2022/04/28 21:47:02;;;;;;;;;;;;;;;9.09;53.74512;103255.6;;;;-79
2022/04/28 21:52:02;;;;;;;;;;;;;;;8.99;53.98926;103259.1;;;;-79
2022/04/28 21:57:02;;;;;;;;;;;;;;;8.94;53.94922;103272.3;;;;-81
2022/04/28 21:58:25;;;;;;;4.9;1.8;;;;;;;;;;;;;-82
2022/04/28 22:02:10;;;;;;;;;;;;;;;8.87;53.99609;103270.9;;;;-81
2022/04/28 22:12:01;;;;;;;;;;;;;;;8.75;54.00293;103270.9;;;;-84
2022/04/28 22:17:01;;;;;;;;;;;;;;;8.7;54.16406;103278.3;;;;-81
2022/04/28 22:22:01;;;;;;;;;;;;;;;8.66;54.10254;103278.3;;;;-80
2022/04/28 22:27:02;;;;;;;;;;;;;;;8.59;54.06152;103281.6;;;;-80
2022/04/28 22:28:26;;;;;;;4;1.7;;;;;;;;;;;;;-78
2022/04/28 22:32:01;;;;;;;;;;;;;;;8.53;54.26465;103279.8;;;;-81
2022/04/28 22:37:01;;;;;;;;;;;;;;;8.5;54.17285;103276.9;;;;-81
2022/04/28 22:42:03;;;;;;;;;;;;;;;8.49;54.22559;103273.2;;;;-81
2022/04/28 22:47:01;;;;;;;;;;;;;;;8.42;54.46094;103272.4;;;;-81
2022/04/28 22:52:01;;;;;;;;;;;;;;;8.39;54.65723;103268.2;;;;-80
2022/04/28 22:57:01;;;;;;;;;;;;;;;8.36;55.04297;103264;;;;-82
2022/04/28 22:58:25;;;;;;;4;1.6;;;;;;;;;;;;;-80
2022/04/28 23:02:02;;;;;;;;;;;;;;;8.33;55.28223;103269.2;;;;-81
2022/04/28 23:07:05;;;;;;;;;;;;;;;8.33;55.16016;103282.9;;;;-79
2022/04/28 23:12:01;;;;;;;;;;;;;;;8.3;55.0127;103288.1;;;;-79
2022/04/28 23:17:06;;;;;;;;;;;;;;;8.28;54.76563;103276.9;;;;-80
2022/04/28 23:22:04;;;;;;;;;;;;;;;8.23;55.05859;103272.5;;;;-81
2022/04/28 23:27:03;;;;;;;;;;;;;;;8.19;55.12012;103282.9;;;;-80
2022/04/28 23:28:27;;;;;;;5.8;1.9;;;;;;;;;;;;;-79
2022/04/28 23:32:01;;;;;;;;;;;;;;;8.16;55.17188;103282.4;;;;-80
2022/04/28 23:47:01;;;;;;;;;;;;;;;8.09;55.80566;103269.3;;;;-80
2022/04/28 23:52:01;;;;;;;;;;;;;;;8.1;55.39648;103262.3;;;;-80
2022/04/28 23:57:04;;;;;;;;;;;;;;;8.08;55.75;103258.6;;;;-79
2022/04/28 23:58:26;;;;;;;4.8;1.8;;;;;;;;;;;;;-81
